Airfield :
LOGIN :

Register | Disclaimer

   EN    FR    IT 

 










Legend :    VFR   Marginal VFR   IFR   Intensive IFR   Very Intensive IFR
Visi :
Ceiling :
>= 8 km
>= 3000ft
5 to 8 km
1000 to 3000 ft
1500m to 5 km
500 to 1000 ft
800 to 1500m
200 to 500 ft
< 800m
< 200 ft
Symbols :   Thunderstorms  Fog  Heavy snow  Heavy precipitations  Wind > 20 kt
SIGMETs :     Misc.  Thunderstorms  Icing  Turbulence  Mountain Waves  Volcanic Ashes






- Airport Elevation : 197 ft
- IATA code : XOG


LFMO - Orange

CURRENT METAR :
  • 152300Z AUTO 14008KT 9999 BKN040 OVC046 13/09 Q1014 NOSIG

EXPIRED METARs :
  • 152230Z AUTO 14007KT 9999 BKN039 OVC047 13/09 Q1014 NOSIG
  • 152200Z AUTO 17005KT 9999 BKN038 OVC045 13/09 Q1014 NOSIG
  • 152130Z AUTO 15004KT 9999 SCT039 OVC046 12/09 Q1014 NOSIG
  • 152100Z AUTO 15005KT 9999 SCT037 OVC047 12/09 Q1014 NOSIG
  • 152030Z AUTO 16003KT 9999 OVC042 13/09 Q1014 NOSIG

TAF TAF LFMO
Valid from the 15 at 21:00 until the 16 at 21:00 UTC


152000Z 1521/1621 16003KT 9999 OVC042
BECMG 1603/1605 15015G25KT BKN014
BECMG 1612/1615 SCT040



MET'MAP, your aeronautical weather chart ! - Copyright ORBIFLY December 2007 - Disclaimer

ORBIFLY MET'MAP TEAM :

Programming & Development : Alexandra Zaïnal
Concept & original design : Baudouin d'Aumeries
Assistance for programming : Marc-Olivier Méhu
Technical & hardware support : Manuel Goepfert

Contact : metmap@orbifly.com




SOURCES & CREDITS :

   NOAA